createdAt,value
2022-08-31T00:02:14.496Z,14.60
2022-08-31T00:05:00.873Z,14.50
2022-08-31T00:07:46.365Z,14.60
2022-08-31T00:10:36.783Z,14.60
2022-08-31T00:13:23.466Z,14.60
2022-08-31T00:16:09.673Z,14.60
2022-08-31T00:18:55.291Z,14.50
2022-08-31T00:21:41.094Z,14.60
2022-08-31T00:24:28.306Z,14.50
2022-08-31T00:27:15.395Z,14.50
2022-08-31T00:30:00.655Z,14.50
2022-08-31T00:32:46.354Z,14.40
2022-08-31T00:35:36.047Z,14.50
2022-08-31T00:38:21.665Z,14.40
2022-08-31T00:41:08.189Z,14.40
2022-08-31T00:43:55.445Z,14.30
2022-08-31T00:46:41.405Z,14.30
2022-08-31T00:49:29.915Z,14.20
2022-08-31T00:52:18.041Z,14.20
2022-08-31T00:55:07.593Z,14.10
2022-08-31T00:57:54.108Z,14.10
2022-08-31T01:00:40.612Z,14.00
2022-08-31T01:03:26.384Z,14.00
2022-08-31T01:06:11.716Z,14.00
2022-08-31T01:08:58.307Z,13.90
2022-08-31T01:11:43.389Z,13.90
2022-08-31T01:14:28.427Z,13.80
2022-08-31T01:17:14.215Z,13.70
2022-08-31T01:20:04.279Z,13.70
2022-08-31T01:23:08.024Z,13.70
2022-08-31T01:25:55.426Z,13.60
2022-08-31T01:28:40.775Z,13.60
2022-08-31T01:31:28.059Z,13.60
2022-08-31T01:34:14.159Z,13.50
2022-08-31T01:37:00.172Z,13.50
2022-08-31T01:39:45.478Z,13.50
2022-08-31T01:42:33.328Z,13.40
2022-08-31T01:45:19.896Z,13.40
2022-08-31T01:48:05.587Z,13.30
2022-08-31T01:50:50.703Z,13.40
2022-08-31T01:53:36.242Z,13.20
2022-08-31T01:56:24.733Z,13.20
2022-08-31T01:59:11.975Z,13.20
2022-08-31T02:01:57.551Z,13.10
2022-08-31T02:04:43.031Z,13.10
2022-08-31T02:07:28.741Z,13.00
2022-08-31T02:10:14.207Z,13.00
2022-08-31T02:12:59.642Z,13.00
2022-08-31T02:15:44.842Z,12.90
2022-08-31T02:18:30.165Z,12.90
2022-08-31T02:21:15.156Z,12.90
2022-08-31T02:24:00.924Z,12.80
2022-08-31T02:26:49.379Z,12.80
2022-08-31T02:29:37.422Z,12.80
2022-08-31T02:32:23.771Z,12.80
2022-08-31T02:35:09.841Z,12.70
2022-08-31T02:37:55.310Z,12.70
2022-08-31T02:40:41.533Z,12.70
2022-08-31T02:43:28.330Z,12.70
2022-08-31T02:46:13.997Z,12.70
2022-08-31T02:49:00.406Z,12.70
2022-08-31T02:51:46.074Z,12.70
2022-08-31T02:54:31.180Z,12.70
2022-08-31T02:57:16.836Z,12.70
2022-08-31T03:00:02.128Z,12.70
2022-08-31T03:02:48.277Z,12.70
2022-08-31T03:05:33.655Z,12.80
2022-08-31T03:08:18.763Z,12.80
2022-08-31T03:11:03.915Z,12.80
2022-08-31T03:13:49.049Z,12.90
2022-08-31T03:16:34.135Z,12.90
2022-08-31T03:19:19.506Z,12.90
2022-08-31T03:22:06.321Z,13.00
2022-08-31T03:24:51.382Z,13.00
2022-08-31T03:27:37.968Z,13.00
2022-08-31T03:30:23.408Z,13.10
2022-08-31T03:33:10.985Z,13.20
2022-08-31T03:35:56.369Z,13.20
2022-08-31T03:38:42.328Z,13.30
2022-08-31T03:41:28.180Z,13.30
2022-08-31T03:44:13.861Z,13.30
2022-08-31T03:47:00.153Z,13.30
2022-08-31T03:49:45.240Z,13.30
2022-08-31T03:52:30.721Z,13.30
2022-08-31T03:55:15.959Z,13.40
2022-08-31T03:58:02.088Z,13.50
2022-08-31T04:00:48.645Z,13.40
2022-08-31T04:03:33.650Z,13.50
2022-08-31T04:06:19.358Z,13.50
2022-08-31T04:09:05.039Z,15.10
2022-08-31T04:11:52.076Z,13.60
2022-08-31T04:14:37.786Z,13.60
2022-08-31T04:17:23.043Z,13.60
2022-08-31T04:20:08.733Z,13.70
2022-08-31T04:22:54.037Z,13.60
2022-08-31T04:25:40.436Z,13.60
2022-08-31T04:28:25.784Z,13.60
2022-08-31T04:31:10.874Z,13.60
2022-08-31T04:33:58.223Z,13.60
2022-08-31T04:36:46.489Z,13.60
2022-08-31T04:39:33.920Z,13.60
2022-08-31T04:42:19.677Z,13.60
2022-08-31T04:45:05.393Z,13.60
2022-08-31T04:47:50.755Z,13.60
2022-08-31T04:50:40.510Z,13.60
2022-08-31T04:53:28.331Z,14.50
2022-08-31T04:56:19.009Z,13.50
2022-08-31T04:59:05.593Z,13.50
2022-08-31T05:01:51.194Z,13.60
2022-08-31T05:04:36.891Z,13.60
2022-08-31T05:07:22.546Z,13.60
2022-08-31T05:10:07.792Z,13.70
2022-08-31T05:12:53.520Z,13.70
2022-08-31T05:15:43.151Z,13.60
2022-08-31T05:18:28.433Z,13.60
2022-08-31T05:21:19.364Z,13.60
2022-08-31T05:24:07.046Z,13.60
2022-08-31T05:26:53.908Z,13.60
2022-08-31T05:29:40.096Z,13.70
2022-08-31T05:32:25.954Z,13.70
2022-08-31T05:35:12.556Z,15.10
2022-08-31T05:37:58.049Z,13.90
2022-08-31T05:40:43.394Z,14.00
2022-08-31T05:43:29.042Z,15.20
2022-08-31T05:46:15.166Z,14.10
2022-08-31T05:49:00.844Z,14.20
2022-08-31T05:51:50.466Z,14.30
2022-08-31T05:54:36.908Z,14.80
2022-08-31T05:57:26.341Z,14.40
2022-08-31T06:00:12.527Z,16.20
2022-08-31T06:02:58.470Z,14.50
2022-08-31T06:05:43.692Z,15.80
2022-08-31T06:08:29.325Z,14.40
2022-08-31T06:11:17.590Z,14.40
2022-08-31T06:14:03.696Z,14.40
2022-08-31T06:16:56.741Z,14.30
2022-08-31T06:19:42.280Z,14.30
2022-08-31T06:22:27.494Z,14.40
2022-08-31T06:25:19.231Z,14.40
2022-08-31T06:28:06.795Z,14.40
2022-08-31T06:30:55.648Z,14.50
2022-08-31T06:33:42.876Z,14.70
2022-08-31T06:36:29.347Z,14.70
2022-08-31T06:39:16.022Z,15.00
2022-08-31T06:42:01.722Z,15.00
2022-08-31T06:44:48.864Z,15.30
2022-08-31T06:47:34.252Z,15.50
2022-08-31T06:50:19.454Z,15.70
2022-08-31T06:53:04.696Z,15.90
2022-08-31T06:55:50.513Z,16.10
2022-08-31T06:58:35.884Z,16.40
2022-08-31T07:01:26.411Z,16.70
2022-08-31T07:04:20.888Z,16.80
2022-08-31T07:07:06.936Z,16.70
2022-08-31T07:09:52.657Z,16.60
2022-08-31T07:12:38.255Z,16.60
2022-08-31T07:15:23.924Z,16.50
2022-08-31T07:18:10.625Z,16.40
2022-08-31T07:21:05.420Z,16.30
2022-08-31T07:23:51.489Z,16.50
2022-08-31T07:26:42.822Z,16.50
2022-08-31T07:29:40.370Z,16.70
2022-08-31T07:32:25.688Z,17.00
2022-08-31T07:35:11.490Z,17.10
2022-08-31T07:38:15.979Z,17.30
2022-08-31T07:41:20.089Z,17.30
2022-08-31T07:44:06.587Z,17.20
2022-08-31T07:46:55.272Z,17.20
2022-08-31T07:49:51.219Z,17.20
2022-08-31T07:52:41.621Z,17.10
2022-08-31T07:55:28.224Z,17.00
2022-08-31T07:58:15.545Z,16.90
2022-08-31T08:01:03.028Z,16.80
2022-08-31T08:03:48.629Z,16.70
2022-08-31T08:06:34.406Z,16.80
2022-08-31T08:09:24.569Z,16.80
2022-08-31T08:12:10.828Z,16.90
2022-08-31T08:14:57.838Z,17.00
2022-08-31T08:17:43.282Z,17.30
2022-08-31T08:20:37.788Z,17.50
2022-08-31T08:23:27.711Z,17.70
2022-08-31T08:26:21.395Z,17.80
2022-08-31T08:29:07.849Z,17.90
2022-08-31T08:31:56.262Z,18.00
2022-08-31T08:34:43.493Z,18.20
2022-08-31T08:37:54.494Z,18.30
2022-08-31T08:40:42.817Z,18.30
2022-08-31T08:43:31.150Z,18.40
2022-08-31T08:46:33.869Z,18.50
2022-08-31T08:49:20.245Z,18.40
2022-08-31T08:52:11.833Z,18.40
2022-08-31T08:55:00.783Z,18.20
2022-08-31T08:57:46.782Z,18.10
2022-08-31T09:00:33.399Z,18.00
2022-08-31T09:03:44.379Z,18.00
2022-08-31T09:06:45.843Z,17.90
2022-08-31T09:09:38.737Z,17.80
2022-08-31T09:12:58.130Z,17.80
2022-08-31T09:15:46.606Z,17.60
2022-08-31T09:18:42.079Z,17.40
2022-08-31T09:21:31.005Z,17.50
2022-08-31T09:24:19.282Z,17.60
2022-08-31T09:27:20.326Z,17.70
2022-08-31T09:30:06.541Z,17.60
2022-08-31T09:32:57.158Z,17.50
2022-08-31T09:35:43.135Z,17.50
2022-08-31T09:38:29.857Z,17.40
2022-08-31T09:41:21.223Z,17.30
2022-08-31T09:44:30.956Z,17.20
2022-08-31T09:47:38.235Z,17.10
2022-08-31T09:50:45.659Z,17.00
2022-08-31T09:53:57.058Z,17.00
2022-08-31T09:56:55.476Z,17.20
2022-08-31T09:59:44.191Z,17.30
2022-08-31T10:02:33.494Z,17.40
2022-08-31T10:05:33.203Z,17.40
2022-08-31T10:08:28.052Z,19.10
2022-08-31T10:11:20.685Z,17.60
2022-08-31T10:14:09.863Z,17.70
2022-08-31T10:17:10.216Z,17.60
2022-08-31T10:20:06.085Z,17.70
2022-08-31T10:23:05.765Z,17.70
2022-08-31T10:26:01.026Z,17.80
2022-08-31T10:28:54.010Z,17.80
2022-08-31T10:31:48.425Z,17.90
2022-08-31T10:34:54.423Z,18.00
2022-08-31T10:37:43.734Z,18.10
2022-08-31T10:40:33.668Z,18.20
2022-08-31T10:43:21.956Z,18.40
2022-08-31T10:46:07.492Z,18.60
2022-08-31T10:48:54.623Z,18.50
2022-08-31T10:51:40.172Z,18.30
2022-08-31T10:54:44.113Z,18.10
2022-08-31T10:57:34.214Z,18.20
2022-08-31T11:00:39.882Z,18.40
2022-08-31T11:03:37.837Z,18.50
2022-08-31T11:06:49.998Z,18.60
2022-08-31T11:09:40.662Z,18.30
2022-08-31T11:12:42.543Z,18.20
2022-08-31T11:15:44.204Z,18.20
2022-08-31T11:18:50.694Z,18.30
2022-08-31T11:21:45.419Z,18.30
2022-08-31T11:24:56.017Z,18.30
2022-08-31T11:27:41.672Z,18.30
2022-08-31T11:30:29.812Z,18.40
2022-08-31T11:33:20.318Z,18.30
2022-08-31T11:36:07.612Z,18.60
2022-08-31T11:39:13.547Z,18.70
2022-08-31T11:42:01.456Z,18.70
2022-08-31T11:45:01.458Z,18.60
2022-08-31T11:47:46.982Z,18.60
2022-08-31T11:50:37.469Z,18.50
2022-08-31T11:53:28.711Z,18.50
2022-08-31T11:56:15.234Z,18.30
2022-08-31T11:59:19.339Z,18.20
2022-08-31T12:02:20.641Z,18.10
2022-08-31T12:05:07.300Z,18.20
2022-08-31T12:07:52.948Z,18.30
2022-08-31T12:11:02.542Z,18.30
2022-08-31T12:13:56.155Z,18.40
2022-08-31T12:16:50.277Z,18.30
2022-08-31T12:20:03.177Z,18.20
2022-08-31T12:23:07.284Z,18.40
2022-08-31T12:26:01.666Z,18.40
2022-08-31T12:28:57.938Z,18.50
2022-08-31T12:31:53.900Z,18.50
2022-08-31T12:34:42.838Z,18.50
2022-08-31T12:37:29.926Z,18.60
2022-08-31T12:40:18.271Z,18.60
2022-08-31T12:43:18.899Z,18.60
2022-08-31T12:46:04.564Z,18.60
2022-08-31T12:48:49.780Z,18.70
2022-08-31T12:51:49.574Z,18.80
2022-08-31T12:54:42.734Z,18.90
2022-08-31T12:57:46.553Z,19.00
2022-08-31T13:00:37.316Z,19.10
2022-08-31T13:03:28.103Z,19.20
2022-08-31T13:06:15.788Z,19.30
2022-08-31T13:09:01.236Z,19.30
2022-08-31T13:11:50.755Z,19.10
2022-08-31T13:14:43.583Z,18.90
2022-08-31T13:17:32.062Z,18.70
2022-08-31T13:20:18.825Z,18.80
2022-08-31T13:23:05.302Z,18.90
2022-08-31T13:26:06.008Z,19.00
2022-08-31T13:28:56.071Z,19.10
2022-08-31T13:31:49.161Z,18.80
2022-08-31T13:34:42.015Z,18.60
2022-08-31T13:37:32.123Z,18.70
2022-08-31T13:40:18.863Z,19.00
2022-08-31T13:43:05.990Z,19.00
2022-08-31T13:45:57.088Z,18.70
2022-08-31T13:48:42.662Z,18.60
2022-08-31T13:51:30.847Z,18.80
2022-08-31T13:54:27.742Z,18.90
2022-08-31T13:57:22.646Z,19.20
2022-08-31T14:00:34.457Z,19.20
2022-08-31T14:03:33.689Z,19.50
2022-08-31T14:06:23.898Z,19.90
2022-08-31T14:09:17.053Z,19.90
2022-08-31T14:12:05.295Z,19.80
2022-08-31T14:14:50.830Z,19.90
2022-08-31T14:17:41.602Z,20.00
2022-08-31T14:20:36.128Z,19.70
2022-08-31T14:23:24.419Z,19.60
2022-08-31T14:26:15.818Z,19.60
2022-08-31T14:29:09.658Z,19.60
2022-08-31T14:31:57.956Z,19.60
2022-08-31T14:34:49.155Z,19.60
2022-08-31T14:37:34.918Z,19.80
2022-08-31T14:40:20.036Z,20.10
2022-08-31T14:43:05.646Z,20.30
2022-08-31T14:45:52.291Z,20.60
2022-08-31T14:48:37.905Z,20.30
2022-08-31T14:51:24.046Z,20.00
2022-08-31T14:54:10.146Z,19.60
2022-08-31T14:56:58.227Z,19.20
2022-08-31T14:59:44.734Z,18.80
2022-08-31T15:02:33.395Z,18.50
2022-08-31T15:05:23.275Z,18.40
2022-08-31T15:08:09.417Z,18.50
2022-08-31T15:10:56.104Z,18.80
2022-08-31T15:13:41.748Z,19.10
2022-08-31T15:16:27.836Z,19.40
2022-08-31T15:19:13.686Z,19.40
2022-08-31T15:22:03.179Z,19.00
2022-08-31T15:24:50.071Z,18.60
2022-08-31T15:27:36.364Z,18.10
2022-08-31T15:30:23.085Z,17.90
2022-08-31T15:33:10.064Z,17.60
2022-08-31T15:36:03.217Z,17.50
2022-08-31T15:38:50.923Z,17.20
2022-08-31T15:41:37.583Z,16.80
2022-08-31T15:44:22.791Z,16.60
2022-08-31T15:47:27.647Z,16.30
2022-08-31T15:50:12.960Z,16.10
2022-08-31T15:52:59.466Z,15.90
2022-08-31T15:55:44.819Z,15.60
2022-08-31T15:58:31.775Z,15.40
2022-08-31T16:01:17.011Z,15.30
2022-08-31T16:04:04.258Z,15.20
2022-08-31T16:06:50.535Z,15.20
2022-08-31T16:09:36.482Z,15.20
2022-08-31T16:12:22.974Z,15.00
2022-08-31T16:15:12.932Z,15.00
2022-08-31T16:17:58.352Z,14.90
2022-08-31T16:20:48.029Z,14.90
2022-08-31T16:23:35.742Z,14.90
2022-08-31T16:26:21.790Z,14.90
2022-08-31T16:29:08.781Z,14.90
2022-08-31T16:31:55.293Z,14.90
2022-08-31T16:34:42.636Z,14.90
2022-08-31T16:37:28.396Z,14.80
2022-08-31T16:40:14.002Z,14.80
2022-08-31T16:43:02.353Z,14.70
2022-08-31T16:45:47.843Z,14.70
2022-08-31T16:48:52.094Z,14.60
2022-08-31T16:51:37.842Z,14.70
2022-08-31T16:54:25.836Z,14.70
2022-08-31T16:57:12.877Z,14.70
2022-08-31T16:59:59.279Z,14.70
2022-08-31T17:02:46.629Z,14.70
2022-08-31T17:05:31.873Z,14.80
2022-08-31T17:08:17.628Z,14.80
2022-08-31T17:11:11.427Z,14.80
2022-08-31T17:14:00.281Z,14.90
2022-08-31T17:16:49.798Z,14.70
2022-08-31T17:19:36.819Z,14.70
2022-08-31T17:22:29.938Z,14.60
2022-08-31T17:25:18.682Z,14.50
2022-08-31T17:28:07.649Z,14.40
2022-08-31T17:30:53.208Z,14.30
2022-08-31T17:33:38.852Z,14.30
2022-08-31T17:36:25.837Z,14.20
2022-08-31T17:39:11.915Z,14.10
2022-08-31T17:41:58.079Z,14.10
2022-08-31T17:44:48.019Z,14.10
2022-08-31T17:47:33.606Z,14.10
2022-08-31T17:50:21.200Z,14.10
2022-08-31T17:53:06.572Z,14.10
2022-08-31T17:55:55.309Z,14.10
2022-08-31T17:58:40.358Z,14.10
2022-08-31T18:01:33.668Z,14.00
2022-08-31T18:04:20.534Z,14.00
2022-08-31T18:07:07.208Z,13.90
2022-08-31T18:09:53.847Z,13.90
2022-08-31T18:12:41.836Z,14.00
2022-08-31T18:15:28.828Z,14.00
2022-08-31T18:18:14.910Z,14.00
2022-08-31T18:21:00.341Z,14.10
2022-08-31T18:23:46.639Z,14.00
2022-08-31T18:26:33.150Z,13.90
2022-08-31T18:29:24.398Z,13.90
2022-08-31T18:32:10.928Z,13.80
2022-08-31T18:34:57.374Z,13.70
2022-08-31T18:37:42.740Z,13.60
2022-08-31T18:40:47.175Z,13.60
2022-08-31T18:43:51.457Z,13.60
2022-08-31T18:46:37.301Z,13.50
2022-08-31T18:49:22.666Z,13.50
2022-08-31T18:52:09.511Z,13.50
2022-08-31T18:54:56.649Z,13.50
2022-08-31T18:57:48.730Z,13.50
2022-08-31T19:00:34.550Z,13.50
2022-08-31T19:03:21.186Z,13.40
2022-08-31T19:06:07.345Z,13.50
2022-08-31T19:08:53.205Z,13.30
2022-08-31T19:11:51.432Z,13.30
2022-08-31T19:14:37.642Z,13.30
2022-08-31T19:17:23.397Z,13.30
2022-08-31T19:20:10.626Z,13.20
2022-08-31T19:22:56.708Z,13.10
2022-08-31T19:25:42.708Z,13.10
2022-08-31T19:28:28.285Z,13.10
2022-08-31T19:31:14.096Z,13.10
2022-08-31T19:33:59.466Z,13.10
2022-08-31T19:36:45.639Z,13.00
2022-08-31T19:39:31.971Z,13.10
2022-08-31T19:42:40.303Z,13.10
2022-08-31T19:45:41.094Z,13.00
2022-08-31T19:48:28.206Z,13.00
2022-08-31T19:51:15.225Z,13.00
2022-08-31T19:54:01.311Z,13.00
2022-08-31T19:56:46.966Z,12.90
2022-08-31T19:59:32.282Z,13.00
2022-08-31T20:02:19.045Z,12.90
2022-08-31T20:05:06.286Z,12.90
2022-08-31T20:07:52.614Z,12.90
2022-08-31T20:10:43.566Z,12.80
2022-08-31T20:13:28.753Z,12.80
2022-08-31T20:16:14.457Z,12.70
2022-08-31T20:19:00.530Z,12.70
2022-08-31T20:21:49.313Z,12.60
2022-08-31T20:24:36.565Z,12.60
2022-08-31T20:27:21.625Z,12.60
2022-08-31T20:30:07.591Z,12.60
2022-08-31T20:32:52.961Z,12.60
2022-08-31T20:35:42.472Z,12.60
2022-08-31T20:38:29.932Z,12.50
2022-08-31T20:41:15.290Z,12.50
2022-08-31T20:44:10.569Z,12.60
2022-08-31T20:47:15.885Z,12.50
2022-08-31T20:50:02.287Z,12.50
2022-08-31T20:52:47.832Z,12.40
2022-08-31T20:55:33.032Z,12.40
2022-08-31T20:58:18.552Z,12.40
2022-08-31T21:01:07.717Z,12.40
2022-08-31T21:03:53.362Z,12.30
2022-08-31T21:06:39.201Z,12.30
2022-08-31T21:09:25.164Z,12.30
2022-08-31T21:12:10.643Z,12.30
2022-08-31T21:14:59.600Z,12.20
2022-08-31T21:17:45.998Z,12.20
2022-08-31T21:20:32.741Z,12.10
2022-08-31T21:23:18.469Z,12.10
2022-08-31T21:26:04.986Z,12.10
2022-08-31T21:28:51.050Z,12.00
2022-08-31T21:31:42.067Z,12.00
2022-08-31T21:34:33.892Z,11.90
2022-08-31T21:37:19.466Z,11.90
2022-08-31T21:40:05.748Z,11.90
2022-08-31T21:42:51.022Z,11.80
2022-08-31T21:45:36.680Z,11.80
2022-08-31T21:48:23.912Z,11.80
2022-08-31T21:51:19.385Z,11.80
2022-08-31T21:54:06.501Z,11.70
2022-08-31T21:56:52.629Z,11.70
2022-08-31T21:59:37.806Z,11.70
2022-08-31T22:02:23.485Z,11.70
2022-08-31T22:05:09.457Z,11.80
2022-08-31T22:07:54.978Z,11.70
2022-08-31T22:10:44.038Z,11.70
2022-08-31T22:13:29.491Z,11.60
2022-08-31T22:16:19.904Z,11.60
2022-08-31T22:19:12.706Z,11.60
2022-08-31T22:22:01.030Z,11.60
2022-08-31T22:24:46.682Z,11.60
2022-08-31T22:27:31.958Z,11.60
2022-08-31T22:30:20.023Z,11.60
2022-08-31T22:33:05.446Z,11.60
2022-08-31T22:35:51.035Z,11.50
2022-08-31T22:38:36.750Z,11.50
2022-08-31T22:41:22.383Z,11.50
2022-08-31T22:44:09.773Z,11.50
2022-08-31T22:46:57.090Z,11.50
2022-08-31T22:49:42.781Z,11.50
2022-08-31T22:52:28.683Z,11.50
2022-08-31T22:55:14.115Z,11.50
2022-08-31T22:57:59.106Z,12.30
2022-08-31T23:00:48.050Z,11.50
2022-08-31T23:03:33.230Z,11.50
2022-08-31T23:06:20.770Z,11.50
2022-08-31T23:09:08.445Z,11.50
2022-08-31T23:11:54.266Z,11.50
2022-08-31T23:14:42.037Z,11.50
2022-08-31T23:17:27.286Z,11.50
2022-08-31T23:20:16.136Z,11.40
2022-08-31T23:23:03.967Z,11.40
2022-08-31T23:25:50.379Z,11.40
2022-08-31T23:28:38.678Z,12.80
2022-08-31T23:31:24.508Z,11.30
2022-08-31T23:34:12.911Z,11.40
2022-08-31T23:36:58.264Z,11.30
2022-08-31T23:39:44.120Z,11.30
2022-08-31T23:42:29.782Z,11.30
2022-08-31T23:45:16.985Z,11.30
2022-08-31T23:48:02.537Z,11.30
2022-08-31T23:50:47.886Z,11.30
2022-08-31T23:53:33.464Z,11.30
2022-08-31T23:56:19.793Z,11.20
2022-08-31T23:59:09.531Z,11.30
